Time;durP1;ratioP1;P1;durP2;ratioP2;P2;SDS_P1;SDS_P2;PMS_P1;PMS_P2;Temp;Humidity;BMP_temperature;BMP_pressure;BME280_temperature;BME280_humidity;BME280_pressure;Samples;Min_cycle;Max_cycle;Signal;HPM_P1;HPM_P2
2023/07/21 00:02:19;;;;;;;5.57;2.20;;;21.10;99.90;;;;;;5051106;28;20104;-59
2023/07/21 00:04:45;;;;;;;6.80;2.63;;;21.10;99.90;;;;;;5051238;28;20025;-60
2023/07/21 00:07:11;;;;;;;3.65;2.15;;;21.10;99.90;;;;;;5050718;28;20111;-59
2023/07/21 00:09:36;;;;;;;5.10;2.15;;;20.90;99.90;;;;;;5050927;28;20041;-60
2023/07/21 00:12:03;;;;;;;4.65;2.10;;;20.80;99.90;;;;;;5050816;28;20211;-59
2023/07/21 00:14:30;;;;;;;4.30;1.92;;;20.80;99.90;;;;;;5051238;28;20013;-60
2023/07/21 00:16:55;;;;;;;6.10;2.10;;;20.50;99.90;;;;;;5050899;28;20502;-60
2023/07/21 00:19:21;;;;;;;4.13;2.00;;;20.50;99.90;;;;;;5050688;28;20104;-60
2023/07/21 00:21:47;;;;;;;5.15;2.00;;;20.50;99.90;;;;;;5050784;28;20029;-60
2023/07/21 00:24:13;;;;;;;4.05;1.95;;;20.50;99.90;;;;;;5050697;28;20348;-60
2023/07/21 00:26:39;;;;;;;3.70;1.75;;;20.40;99.90;;;;;;5050734;28;20033;-60
2023/07/21 00:29:06;;;;;;;3.67;2.33;;;20.30;99.90;;;;;;5050723;28;20017;-60
2023/07/21 00:31:31;;;;;;;3.33;1.85;;;20.20;99.90;;;;;;5050852;28;20393;-60
2023/07/21 00:33:57;;;;;;;3.47;2.17;;;20.20;99.90;;;;;;5050552;28;20025;-60
2023/07/21 00:36:24;;;;;;;3.45;1.70;;;20.20;99.90;;;;;;5051024;28;20040;-60
2023/07/21 00:38:50;;;;;;;3.78;1.92;;;20.10;99.90;;;;;;5050639;28;20104;-59
2023/07/21 00:41:17;;;;;;;4.72;1.77;;;20.20;99.90;;;;;;5050715;28;20060;-60
2023/07/21 00:43:42;;;;;;;5.45;2.10;;;20.10;99.90;;;;;;5050864;28;20029;-60
2023/07/21 00:46:10;;;;;;;5.55;1.70;;;20.00;99.90;;;;;;5050475;28;20453;-60
2023/07/21 00:48:37;;;;;;;4.65;2.00;;;19.90;99.90;;;;;;5050478;28;20040;-59
2023/07/21 00:51:03;;;;;;;4.78;1.90;;;20.00;99.90;;;;;;5050322;28;20449;-59
2023/07/21 00:53:30;;;;;;;3.00;1.50;;;20.20;99.90;;;;;;5050935;28;20078;-59
2023/07/21 00:55:55;;;;;;;3.85;1.60;;;20.50;99.90;;;;;;5050563;28;20013;-60
2023/07/21 00:58:22;;;;;;;5.00;1.80;;;20.60;99.90;;;;;;5049238;28;20418;-60
2023/07/21 01:00:48;;;;;;;4.10;1.88;;;20.70;99.90;;;;;;5049190;28;20048;-60
2023/07/21 01:03:17;;;;;;;4.78;1.88;;;20.80;99.90;;;;;;5053895;28;20079;-60
2023/07/21 01:05:49;;;;;;;3.67;1.77;;;20.90;99.90;;;;;;5053622;28;20057;-59
2023/07/21 01:08:16;;;;;;;3.80;1.75;;;20.90;99.90;;;;;;5054013;28;20044;-59
2023/07/21 01:10:43;;;;;;;4.93;1.90;;;20.90;99.90;;;;;;5053801;28;20021;-60
2023/07/21 01:13:10;;;;;;;4.65;1.98;;;20.80;99.90;;;;;;5053806;28;20079;-60
2023/07/21 01:15:38;;;;;;;3.22;1.52;;;20.70;99.90;;;;;;5053871;28;20507;-59
2023/07/21 01:18:04;;;;;;;4.05;2.10;;;20.60;99.90;;;;;;5053963;28;20021;-60
2023/07/21 01:20:31;;;;;;;4.35;1.85;;;20.60;99.90;;;;;;5053410;28;20053;-60
2023/07/21 01:23:11;;;;;;;3.30;1.85;;;20.40;99.90;;;;;;5053623;28;20035;-60
2023/07/21 01:25:39;;;;;;;3.67;1.90;;;20.10;99.90;;;;;;5053577;28;20049;-60
2023/07/21 01:28:07;;;;;;;4.20;1.95;;;20.00;99.90;;;;;;5053594;28;20025;-60
2023/07/21 01:30:34;;;;;;;4.78;1.70;;;19.80;99.90;;;;;;5053520;28;20519;-60
2023/07/21 01:33:01;;;;;;;3.70;1.63;;;19.70;99.90;;;;;;5053844;28;20025;-60
2023/07/21 01:35:30;;;;;;;4.70;2.00;;;19.60;99.90;;;;;;5053126;28;20100;-60
2023/07/21 01:37:57;;;;;;;3.72;1.73;;;19.50;99.90;;;;;;5053443;28;20029;-60
2023/07/21 01:40:25;;;;;;;5.30;1.90;;;19.40;99.90;;;;;;5053352;28;20044;-60
2023/07/21 01:42:51;;;;;;;3.58;1.77;;;19.40;99.90;;;;;;5053684;28;20021;-60
2023/07/21 01:45:17;;;;;;;4.35;1.73;;;19.30;99.90;;;;;;5053144;28;20398;-60
2023/07/21 01:47:46;;;;;;;3.95;1.60;;;19.30;99.90;;;;;;5052989;28;20052;-60
2023/07/21 01:50:14;;;;;;;2.90;1.75;;;19.30;99.90;;;;;;5051908;28;20055;-60
2023/07/21 01:52:43;;;;;;;5.95;1.98;;;19.30;99.90;;;;;;5053472;28;20039;-60
2023/07/21 01:55:12;;;;;;;5.70;1.92;;;19.30;99.90;;;;;;5053108;28;20478;-60
2023/07/21 01:57:40;;;;;;;4.28;1.83;;;19.30;99.90;;;;;;5052875;28;20041;-60
2023/07/21 02:00:10;;;;;;;5.75;2.28;;;19.30;99.90;;;;;;5052815;28;20017;-59
2023/07/21 02:02:37;;;;;;;4.60;1.92;;;19.30;99.90;;;;;;5052574;28;20033;-60
2023/07/21 02:05:05;;;;;;;2.80;1.60;;;19.50;99.90;;;;;;5052814;28;20032;-60
2023/07/21 02:07:32;;;;;;;2.72;1.60;;;19.70;99.90;;;;;;5053034;28;20490;-59
2023/07/21 02:09:58;;;;;;;4.28;1.90;;;20.00;99.90;;;;;;5052693;28;20063;-60
2023/07/21 02:12:24;;;;;;;3.17;1.65;;;20.10;99.90;;;;;;5052338;28;20469;-60
2023/07/21 02:14:49;;;;;;;3.72;1.95;;;20.10;99.90;;;;;;5052417;28;20052;-60
2023/07/21 02:17:15;;;;;;;3.35;1.70;;;20.30;99.90;;;;;;5052750;28;20049;-60
2023/07/21 02:19:41;;;;;;;3.85;1.90;;;20.40;99.90;;;;;;5052567;28;20079;-60
2023/07/21 02:22:07;;;;;;;4.25;1.88;;;20.40;99.90;;;;;;5052702;28;20405;-60
2023/07/21 02:24:32;;;;;;;3.60;1.88;;;20.50;99.90;;;;;;5052727;28;20049;-60
2023/07/21 02:26:59;;;;;;;2.92;1.67;;;20.70;99.90;;;;;;5052557;28;20045;-60
2023/07/21 02:29:25;;;;;;;5.22;1.80;;;20.60;99.90;;;;;;5052299;28;20032;-60
2023/07/21 02:31:50;;;;;;;5.05;1.88;;;20.70;99.90;;;;;;5052346;28;20025;-60
2023/07/21 02:34:16;;;;;;;3.78;1.67;;;20.60;99.90;;;;;;5052273;28;20021;-60
2023/07/21 02:36:42;;;;;;;4.07;1.88;;;20.50;99.90;;;;;;5052327;28;20223;-60
2023/07/21 02:39:08;;;;;;;4.65;2.00;;;20.40;99.90;;;;;;5052327;28;20501;-60
2023/07/21 02:41:33;;;;;;;2.88;1.90;;;20.40;99.90;;;;;;5052604;28;20043;-59
2023/07/21 02:43:59;;;;;;;3.05;1.60;;;20.30;99.90;;;;;;5052065;28;20401;-60
2023/07/21 02:46:25;;;;;;;2.83;1.83;;;20.30;99.90;;;;;;5051622;28;20021;-60
2023/07/21 02:48:51;;;;;;;3.58;2.00;;;20.10;99.90;;;;;;5051963;28;20075;-60
2023/07/21 02:51:16;;;;;;;4.25;2.30;;;20.10;99.90;;;;;;5052001;28;20455;-60
2023/07/21 02:53:42;;;;;;;4.20;1.90;;;20.10;99.90;;;;;;5052003;28;20029;-60
2023/07/21 02:56:08;;;;;;;3.97;2.00;;;20.00;99.90;;;;;;5050632;28;20417;-60
2023/07/21 02:58:34;;;;;;;5.63;1.92;;;19.90;99.90;;;;;;5052162;28;20017;-60
2023/07/21 03:01:03;;;;;;;4.63;1.70;;;19.90;99.90;;;;;;5051392;28;20075;-60
2023/07/21 03:03:29;;;;;;;4.32;2.00;;;20.00;99.90;;;;;;5051735;28;20032;-60
2023/07/21 03:05:56;;;;;;;5.22;2.10;;;20.00;99.90;;;;;;5051444;28;20033;-60
2023/07/21 03:08:29;;;;;;;4.93;1.63;;;19.80;99.90;;;;;;5051611;28;20021;-60
2023/07/21 03:10:58;;;;;;;3.70;1.92;;;19.90;99.90;;;;;;5051613;28;20033;-60
2023/07/21 03:13:24;;;;;;;4.53;1.90;;;19.80;99.90;;;;;;5051441;28;20555;-59
2023/07/21 03:15:54;;;;;;;4.60;1.98;;;19.80;99.90;;;;;;5051854;28;20029;-60
2023/07/21 03:18:19;;;;;;;3.75;1.70;;;19.80;99.90;;;;;;5051436;28;20108;-60
2023/07/21 03:20:45;;;;;;;4.10;1.80;;;19.80;99.90;;;;;;5051459;28;20104;-60
2023/07/21 03:23:11;;;;;;;4.38;1.77;;;20.00;99.90;;;;;;5051204;28;20025;-59
2023/07/21 03:25:46;;;;;;;2.60;1.52;;;20.20;99.90;;;;;;5050903;28;20033;-60
2023/07/21 03:28:12;;;;;;;3.60;1.77;;;20.30;99.90;;;;;;5051779;28;20055;-60
2023/07/21 03:30:37;;;;;;;2.83;1.60;;;20.40;99.90;;;;;;5051157;28;20490;-59
2023/07/21 03:33:03;;;;;;;4.93;1.83;;;20.30;99.90;;;;;;5051443;28;20461;-59
2023/07/21 03:35:29;;;;;;;5.35;1.65;;;20.40;99.90;;;;;;5051229;28;20028;-60
2023/07/21 03:37:57;;;;;;;4.80;1.85;;;20.40;99.90;;;;;;5051386;28;20052;-60
2023/07/21 03:40:23;;;;;;;2.70;1.60;;;20.40;99.90;;;;;;5051211;28;20036;-59
2023/07/21 03:42:49;;;;;;;2.75;1.50;;;20.40;99.90;;;;;;5051546;28;20033;-60
2023/07/21 03:45:14;;;;;;;4.10;1.80;;;20.40;99.90;;;;;;5050952;28;20029;-59
2023/07/21 03:47:40;;;;;;;3.60;1.67;;;20.50;99.90;;;;;;5051095;28;20504;-60
2023/07/21 03:50:08;;;;;;;3.50;1.67;;;20.60;99.90;;;;;;5051446;28;20092;-60
2023/07/21 03:52:33;;;;;;;5.97;2.03;;;20.40;99.90;;;;;;5051281;28;20406;-59
2023/07/21 03:54:59;;;;;;;4.18;1.50;;;20.10;99.90;;;;;;5051006;28;20025;-60
2023/07/21 03:57:25;;;;;;;3.90;1.80;;;20.20;99.90;;;;;;5051010;28;20025;-59
2023/07/21 03:59:52;;;;;;;5.10;1.95;;;20.00;99.90;;;;;;5051245;28;20167;-60
2023/07/21 04:02:18;;;;;;;3.92;2.22;;;20.10;99.90;;;;;;5051051;28;20036;-60
2023/07/21 04:04:47;;;;;;;3.30;1.60;;;19.80;99.90;;;;;;5050909;28;20025;-60
2023/07/21 04:07:13;;;;;;;3.10;1.80;;;19.70;99.90;;;;;;5051458;28;20078;-60
2023/07/21 04:09:39;;;;;;;2.85;1.70;;;19.50;99.90;;;;;;5050886;28;20025;-60
2023/07/21 04:12:06;;;;;;;3.05;1.80;;;19.40;99.90;;;;;;5050728;28;20033;-60
2023/07/21 04:14:32;;;;;;;3.08;1.60;;;19.70;99.90;;;;;;5050475;28;20508;-60
2023/07/21 04:16:57;;;;;;;6.05;2.50;;;19.60;99.90;;;;;;5051205;28;20029;-60
2023/07/21 04:19:25;;;;;;;3.65;1.70;;;19.40;99.90;;;;;;5050714;28;20025;-60
2023/07/21 04:21:52;;;;;;;2.92;1.60;;;19.50;99.90;;;;;;5050972;28;20478;-60
2023/07/21 04:24:18;;;;;;;3.03;1.75;;;19.60;99.90;;;;;;5050644;28;20045;-59
2023/07/21 04:26:44;;;;;;;5.50;1.92;;;19.50;99.90;;;;;;5050925;28;20044;-59
2023/07/21 04:29:10;;;;;;;4.30;1.77;;;19.40;99.90;;;;;;5049247;28;20378;-60
2023/07/21 04:31:35;;;;;;;3.97;1.90;;;19.40;99.90;;;;;;5050597;28;20087;-59
2023/07/21 04:34:01;;;;;;;4.53;1.60;;;19.40;99.90;;;;;;5049504;28;20032;-60
2023/07/21 04:36:27;;;;;;;3.25;1.52;;;19.50;99.90;;;;;;5053374;28;20040;-59
2023/07/21 04:38:53;;;;;;;3.35;1.83;;;19.70;99.90;;;;;;5054477;28;20040;-59
2023/07/21 04:41:19;;;;;;;3.10;1.60;;;19.90;99.90;;;;;;5054712;28;20024;-60
2023/07/21 04:43:45;;;;;;;3.17;1.67;;;20.00;99.90;;;;;;5054129;28;20449;-60
2023/07/21 04:46:10;;;;;;;2.80;1.60;;;20.20;99.90;;;;;;5054319;28;20124;-60
2023/07/21 04:48:36;;;;;;;3.83;1.85;;;20.20;99.90;;;;;;5054384;28;20029;-59
2023/07/21 04:51:03;;;;;;;3.33;1.60;;;20.30;99.90;;;;;;5054607;28;20052;-60
2023/07/21 04:53:29;;;;;;;5.38;1.60;;;20.20;99.90;;;;;;5054304;28;20025;-59
2023/07/21 04:55:58;;;;;;;3.72;1.73;;;20.20;99.90;;;;;;5054062;28;20029;-60
2023/07/21 04:58:24;;;;;;;3.50;1.70;;;20.30;99.90;;;;;;5054037;28;20029;-60
2023/07/21 05:00:51;;;;;;;3.65;1.77;;;20.30;99.90;;;;;;5054493;28;20481;-60
2023/07/21 05:03:17;;;;;;;5.35;1.77;;;20.30;99.90;;;;;;5054119;28;20021;-60
2023/07/21 05:05:45;;;;;;;3.30;1.60;;;20.30;99.90;;;;;;5054073;28;20070;-60
2023/07/21 05:08:10;;;;;;;5.68;1.63;;;20.20;99.90;;;;;;5053868;28;20037;-59
2023/07/21 05:10:36;;;;;;;3.47;1.67;;;20.10;99.90;;;;;;5054312;28;20025;-59
2023/07/21 05:13:05;;;;;;;4.95;1.80;;;20.00;99.90;;;;;;5053408;28;20033;-60
2023/07/21 05:15:35;;;;;;;3.20;1.52;;;19.80;99.90;;;;;;5053797;28;20112;-59
2023/07/21 05:18:01;;;;;;;3.75;1.50;;;19.70;99.90;;;;;;5053752;28;20429;-60
2023/07/21 05:20:27;;;;;;;3.45;1.70;;;19.60;99.90;;;;;;5053904;28;20029;-60
2023/07/21 05:22:52;;;;;;;3.17;1.50;;;19.50;99.90;;;;;;5053602;28;20087;-59
2023/07/21 05:25:18;;;;;;;4.00;1.75;;;19.50;99.90;;;;;;5053212;28;20080;-59
2023/07/21 05:27:47;;;;;;;3.00;1.50;;;19.60;99.90;;;;;;5053455;28;20033;-60
2023/07/21 05:30:13;;;;;;;4.38;1.60;;;19.70;99.90;;;;;;5053822;28;20049;-60
2023/07/21 05:32:41;;;;;;;3.22;1.60;;;19.70;99.90;;;;;;5053592;28;20063;-60
2023/07/21 05:35:08;;;;;;;5.10;1.50;;;19.70;99.90;;;;;;5053343;28;20117;-59
2023/07/21 05:37:33;;;;;;;4.10;1.60;;;19.60;99.90;;;;;;5052151;28;20527;-59
2023/07/21 05:39:59;;;;;;;3.80;1.60;;;19.60;99.90;;;;;;5051613;28;20104;-60
2023/07/21 05:42:25;;;;;;;3.42;1.50;;;19.50;99.90;;;;;;5053445;28;20032;-60
2023/07/21 05:44:50;;;;;;;2.78;1.45;;;19.60;99.90;;;;;;5053475;28;20398;-60
2023/07/21 05:47:16;;;;;;;4.30;1.58;;;19.60;99.90;;;;;;5052699;28;20076;-60
2023/07/21 05:49:42;;;;;;;4.50;1.67;;;19.60;99.90;;;;;;5053168;28;20025;-59
2023/07/21 05:52:07;;;;;;;2.65;1.60;;;19.60;99.90;;;;;;5053133;28;20492;-59
2023/07/21 05:54:33;;;;;;;5.00;1.80;;;19.70;99.90;;;;;;5052846;28;20398;-60
2023/07/21 05:56:59;;;;;;;4.95;1.70;;;19.90;99.90;;;;;;5053029;28;20079;-59
2023/07/21 05:59:24;;;;;;;2.47;1.40;;;20.10;99.90;;;;;;5053030;28;20036;-60
2023/07/21 06:01:51;;;;;;;2.45;1.60;;;20.20;99.90;;;;;;5053316;28;20063;-60
2023/07/21 06:04:17;;;;;;;2.45;1.48;;;20.30;99.90;;;;;;5052975;28;20064;-59
2023/07/21 06:06:43;;;;;;;3.00;1.80;;;20.40;99.90;;;;;;5052632;28;20116;-59
2023/07/21 06:09:09;;;;;;;3.35;1.60;;;20.30;99.90;;;;;;5052518;28;20159;-59
2023/07/21 06:11:35;;;;;;;5.13;1.80;;;20.40;99.90;;;;;;5052761;28;20032;-60
2023/07/21 06:14:01;;;;;;;4.00;1.70;;;20.50;99.90;;;;;;5052576;28;20036;-60
2023/07/21 06:16:26;;;;;;;3.42;1.85;;;20.60;99.90;;;;;;5052959;28;20040;-60
2023/07/21 06:18:53;;;;;;;4.97;1.90;;;20.60;99.90;;;;;;5052981;28;20390;-59
2023/07/21 06:21:20;;;;;;;4.93;1.70;;;20.40;99.90;;;;;;5052539;28;20036;-59
2023/07/21 06:23:47;;;;;;;3.80;1.90;;;20.60;99.90;;;;;;5051977;28;20048;-60
2023/07/21 06:26:13;;;;;;;4.82;1.80;;;20.50;99.90;;;;;;5052444;28;20040;-59
2023/07/21 06:28:38;;;;;;;4.63;1.80;;;20.40;99.90;;;;;;5052790;28;20021;-59
2023/07/21 06:31:04;;;;;;;4.25;1.90;;;20.20;99.90;;;;;;5052268;28;20064;-59
2023/07/21 06:33:30;;;;;;;3.00;1.70;;;20.20;99.90;;;;;;5051026;28;20074;-58
2023/07/21 06:35:55;;;;;;;3.90;1.70;;;20.10;99.90;;;;;;5052237;28;20029;-59
2023/07/21 06:38:21;;;;;;;3.60;1.80;;;20.20;99.90;;;;;;5052005;28;20017;-59
2023/07/21 06:40:47;;;;;;;3.85;1.60;;;20.10;99.90;;;;;;5052539;28;20047;-58
2023/07/21 06:43:13;;;;;;;4.20;1.73;;;20.00;99.90;;;;;;5052195;28;20520;-58
2023/07/21 06:45:40;;;;;;;4.53;1.70;;;20.20;99.90;;;;;;5052088;28;20079;-59
2023/07/21 06:48:06;;;;;;;4.55;1.90;;;20.10;99.90;;;;;;5052387;28;20045;-58
2023/07/21 06:50:32;;;;;;;2.22;1.42;;;20.10;99.90;;;;;;5051945;28;20048;-59
2023/07/21 06:53:01;;;;;;;4.20;1.90;;;20.10;99.90;;;;;;5051650;28;20128;-59
2023/07/21 06:55:26;;;;;;;3.55;1.85;;;20.10;99.90;;;;;;5051948;28;20482;-59
2023/07/21 06:57:52;;;;;;;3.65;1.70;;;20.00;99.90;;;;;;5051961;28;20082;-60
2023/07/21 07:00:18;;;;;;;4.88;1.90;;;20.00;99.90;;;;;;5051687;28;20020;-60
2023/07/21 07:02:48;;;;;;;4.55;1.50;;;20.10;99.90;;;;;;5052210;28;20104;-60
2023/07/21 07:05:17;;;;;;;4.18;1.70;;;20.10;99.90;;;;;;5051736;28;20013;-60
2023/07/21 07:07:43;;;;;;;3.47;1.70;;;20.20;99.90;;;;;;5051346;28;20036;-59
2023/07/21 07:10:10;;;;;;;4.72;1.95;;;20.30;99.90;;;;;;5051643;28;20025;-60
2023/07/21 07:12:37;;;;;;;2.95;1.73;;;20.40;99.90;;;;;;5052045;28;20029;-59
2023/07/21 07:15:03;;;;;;;4.63;1.90;;;20.60;99.90;;;;;;5051691;28;20021;-59
2023/07/21 07:17:29;;;;;;;5.18;1.60;;;20.80;99.90;;;;;;5051570;28;20032;-60
2023/07/21 07:19:55;;;;;;;4.05;1.70;;;20.90;99.90;;;;;;5051369;28;20473;-60
2023/07/21 07:22:20;;;;;;;4.53;1.90;;;21.00;99.90;;;;;;5051573;28;20489;-59
2023/07/21 07:24:46;;;;;;;3.85;1.65;;;21.20;99.90;;;;;;5051297;28;20048;-60
2023/07/21 07:27:13;;;;;;;2.30;1.50;;;21.10;99.90;;;;;;5051317;28;20131;-59
2023/07/21 07:29:40;;;;;;;5.20;1.77;;;21.20;99.90;;;;;;5051359;28;20126;-60
2023/07/21 07:32:06;;;;;;;4.43;1.83;;;21.30;99.90;;;;;;5051296;28;20017;-60
2023/07/21 07:34:32;;;;;;;4.43;1.88;;;21.30;99.90;;;;;;5051282;28;20036;-60
2023/07/21 07:36:58;;;;;;;2.60;1.52;;;21.30;99.90;;;;;;5051253;28;20033;-60
2023/07/21 07:39:24;;;;;;;4.80;1.95;;;21.50;99.90;;;;;;5051126;28;20021;-60
2023/07/21 07:41:51;;;;;;;4.57;1.70;;;21.30;99.90;;;;;;5051459;28;20024;-60
2023/07/21 07:44:18;;;;;;;4.30;1.88;;;21.20;99.90;;;;;;5051151;28;20033;-59
2023/07/21 07:46:43;;;;;;;3.35;1.65;;;21.10;99.90;;;;;;5051448;28;20037;-60
2023/07/21 07:49:09;;;;;;;4.28;1.80;;;21.00;99.90;;;;;;5051175;28;20033;-60
2023/07/21 07:51:40;;;;;;;4.10;1.65;;;20.90;99.90;;;;;;5050858;28;20063;-60
2023/07/21 07:54:07;;;;;;;2.50;1.70;;;20.90;99.90;;;;;;5051096;28;20108;-59
2023/07/21 07:56:33;;;;;;;3.13;1.70;;;20.90;99.90;;;;;;5051161;28;20390;-60
2023/07/21 07:58:59;;;;;;;3.97;1.70;;;20.90;99.90;;;;;;5050998;28;20037;-60
2023/07/21 08:01:26;;;;;;;5.70;2.03;;;20.90;99.90;;;;;;5051433;28;20541;-60
2023/07/21 08:03:53;;;;;;;3.00;1.60;;;20.90;99.90;;;;;;5050913;28;20033;-59
2023/07/21 08:06:19;;;;;;;3.92;1.70;;;21.10;99.90;;;;;;5050527;28;20033;-60
2023/07/21 08:08:46;;;;;;;4.50;1.70;;;21.10;99.90;;;;;;5051158;28;20049;-60
2023/07/21 08:11:11;;;;;;;2.25;1.75;;;21.10;99.90;;;;;;5053577;28;20406;-60
2023/07/21 08:13:39;;;;;;;5.53;1.95;;;21.00;99.90;;;;;;5054910;28;20043;-60
2023/07/21 08:16:13;;;;;;;4.18;1.80;;;21.00;99.90;;;;;;5055024;28;20029;-60
2023/07/21 08:18:39;;;;;;;4.28;1.77;;;20.90;99.90;;;;;;5054798;28;20029;-60
2023/07/21 08:21:21;;;;;;;2.78;1.80;;;20.80;99.90;;;;;;5054690;28;20170;-61
2023/07/21 08:23:49;;;;;;;4.63;2.15;;;20.70;99.90;;;;;;5054709;28;20057;-59
2023/07/21 08:26:15;;;;;;;4.00;2.08;;;20.90;99.90;;;;;;5054784;28;20171;-60
2023/07/21 08:28:41;;;;;;;4.20;1.80;;;21.00;99.90;;;;;;5054676;28;20033;-60
2023/07/21 08:31:08;;;;;;;4.00;2.05;;;21.10;99.90;;;;;;5054662;28;20024;-60
2023/07/21 08:33:34;;;;;;;6.15;2.00;;;21.10;99.90;;;;;;5054603;28;20036;-60
2023/07/21 08:36:00;;;;;;;4.30;2.22;;;21.20;99.90;;;;;;5054584;28;20024;-60
2023/07/21 08:38:26;;;;;;;5.90;2.20;;;21.40;99.90;;;;;;5054630;28;20108;-59
2023/07/21 08:40:58;;;;;;;4.65;2.15;;;21.30;99.90;;;;;;5054444;28;20060;-60
2023/07/21 08:43:25;;;;;;;3.83;1.80;;;21.50;99.90;;;;;;5054556;28;20031;-60
2023/07/21 08:45:51;;;;;;;5.03;1.88;;;21.70;99.90;;;;;;5054673;28;20059;-59
2023/07/21 08:48:17;;;;;;;4.82;1.90;;;21.80;99.90;;;;;;5054038;28;20017;-59
2023/07/21 08:50:47;;;;;;;4.13;2.00;;;22.00;99.90;;;;;;5054293;28;20294;-60
2023/07/21 08:53:13;;;;;;;6.70;2.05;;;22.20;99.90;;;;;;5054300;28;20108;-60
2023/07/21 08:55:39;;;;;;;4.25;1.90;;;22.10;99.90;;;;;;5054178;28;20103;-60
2023/07/21 08:58:06;;;;;;;3.35;2.03;;;22.10;99.90;;;;;;5054162;28;20449;-60
2023/07/21 09:00:32;;;;;;;6.65;2.30;;;22.00;99.90;;;;;;5054224;28;20045;-60
2023/07/21 09:03:00;;;;;;;4.35;2.22;;;21.90;99.90;;;;;;5054160;28;20029;-60
2023/07/21 09:05:26;;;;;;;3.53;2.10;;;21.90;99.90;;;;;;5054204;28;20033;-60
2023/07/21 09:07:52;;;;;;;3.30;1.88;;;21.80;99.90;;;;;;5054101;28;20112;-59
2023/07/21 09:10:34;;;;;;;6.25;2.00;;;21.70;99.90;;;;;;5054461;28;20458;-59
2023/07/21 09:13:13;;;;;;;4.00;1.95;;;21.40;99.90;;;;;;5054177;28;20108;-59
2023/07/21 09:15:38;;;;;;;4.85;2.00;;;21.30;99.90;;;;;;5053823;28;20040;-60
2023/07/21 09:18:04;;;;;;;3.83;2.10;;;21.40;99.90;;;;;;5053341;28;20013;-60
2023/07/21 09:20:31;;;;;;;5.25;1.88;;;21.40;99.90;;;;;;5053795;28;20021;-60
2023/07/21 09:22:56;;;;;;;4.22;2.20;;;21.50;99.90;;;;;;5052829;28;20025;-60
2023/07/21 09:25:22;;;;;;;3.28;2.00;;;21.60;99.90;;;;;;5053483;28;20064;-59
2023/07/21 09:27:55;;;;;;;4.57;2.00;;;21.60;99.90;;;;;;5053579;28;20029;-58
2023/07/21 09:30:22;;;;;;;4.70;1.85;;;21.70;99.90;;;;;;5053578;28;20458;-60
2023/07/21 09:32:53;;;;;;;5.57;2.20;;;21.60;99.90;;;;;;5053529;28;20066;-60
2023/07/21 09:35:19;;;;;;;4.65;2.00;;;21.60;99.90;;;;;;5053495;28;20032;-60
2023/07/21 09:37:50;;;;;;;3.70;2.08;;;21.80;99.90;;;;;;5053465;28;20033;-60
2023/07/21 09:40:16;;;;;;;3.67;2.00;;;21.70;99.90;;;;;;5053347;28;20474;-60
2023/07/21 09:42:43;;;;;;;3.20;2.10;;;21.80;99.90;;;;;;5053789;28;20033;-60
2023/07/21 09:45:09;;;;;;;3.63;1.98;;;22.00;99.90;;;;;;5053238;28;20029;-60
2023/07/21 09:47:39;;;;;;;2.88;1.95;;;22.20;99.90;;;;;;5052805;28;20041;-60
2023/07/21 09:50:05;;;;;;;4.40;1.80;;;22.40;99.90;;;;;;5053221;28;20025;-60
2023/07/21 09:52:39;;;;;;;3.50;1.70;;;22.60;99.90;;;;;;5053221;28;20119;-60
2023/07/21 09:55:10;;;;;;;4.15;2.03;;;22.70;99.90;;;;;;5053160;28;20052;-59
2023/07/21 09:57:42;;;;;;;4.75;2.20;;;22.70;99.90;;;;;;5053334;28;20044;-60
2023/07/21 10:00:14;;;;;;;4.63;2.05;;;22.70;99.90;;;;;;5053151;28;20375;-59
2023/07/21 10:02:45;;;;;;;4.97;2.15;;;22.70;99.90;;;;;;5052416;28;20021;-59
2023/07/21 10:05:11;;;;;;;3.10;1.90;;;22.70;99.90;;;;;;5053317;28;20371;-60
2023/07/21 10:07:56;;;;;;;5.22;2.25;;;22.80;99.90;;;;;;5052741;28;20075;-60
2023/07/21 10:10:22;;;;;;;5.18;1.90;;;22.80;99.90;;;;;;5052992;28;20109;-60
2023/07/21 10:12:52;;;;;;;2.78;1.80;;;23.00;99.90;;;;;;5052566;28;20540;-60
2023/07/21 10:15:28;;;;;;;4.45;1.80;;;23.00;99.90;;;;;;5052816;28;20031;-60
2023/07/21 10:17:58;;;;;;;4.60;1.60;;;22.80;99.90;;;;;;5052773;28;20021;-59
2023/07/21 10:20:50;;;;;;;5.30;2.05;;;22.60;99.90;;;;;;5052590;28;20029;-60
2023/07/21 10:23:22;;;;;;;3.47;1.60;;;22.50;99.90;;;;;;5052509;28;20017;-60
2023/07/21 10:25:51;;;;;;;3.28;1.80;;;22.40;99.90;;;;;;5052597;28;20029;-60
2023/07/21 10:28:22;;;;;;;5.32;2.03;;;22.50;99.90;;;;;;5052410;28;20041;-60
2023/07/21 10:30:49;;;;;;;3.30;2.00;;;22.50;99.90;;;;;;5052030;28;20516;-60
2023/07/21 10:33:22;;;;;;;6.88;2.10;;;22.50;99.90;;;;;;5052077;28;20445;-60
2023/07/21 10:35:48;;;;;;;4.72;1.80;;;22.40;99.90;;;;;;5052061;28;20025;-60
2023/07/21 10:38:14;;;;;;;2.85;2.00;;;22.30;99.90;;;;;;5052545;28;20028;-60
2023/07/21 10:40:44;;;;;;;4.78;2.10;;;22.40;99.90;;;;;;5052218;28;20025;-60
2023/07/21 10:43:10;;;;;;;3.08;1.63;;;22.30;99.90;;;;;;5052101;28;20021;-59
2023/07/21 10:45:37;;;;;;;3.97;1.80;;;22.30;99.90;;;;;;5051851;28;20052;-60
2023/07/21 10:48:16;;;;;;;2.22;1.83;;;22.30;99.90;;;;;;5052355;28;20037;-60
2023/07/21 10:50:54;;;;;;;1.90;1.52;;;22.50;99.90;;;;;;5051987;28;20029;-60
2023/07/21 10:53:26;;;;;;;2.80;1.83;;;22.40;99.90;;;;;;5051991;28;20029;-59
2023/07/21 10:55:54;;;;;;;2.78;1.75;;;22.50;99.90;;;;;;5052104;28;20036;-60
2023/07/21 10:58:20;;;;;;;4.90;2.05;;;22.60;99.90;;;;;;5051930;28;20558;-60
2023/07/21 11:00:51;;;;;;;6.30;1.73;;;22.60;99.90;;;;;;5051462;28;20029;-60
2023/07/21 11:03:17;;;;;;;3.90;1.70;;;22.80;99.90;;;;;;5052307;28;20071;-59
2023/07/21 11:05:44;;;;;;;5.32;2.00;;;23.00;99.90;;;;;;5051787;28;20036;-60
2023/07/21 11:08:28;;;;;;;2.50;1.80;;;23.50;99.90;;;;;;5051790;28;20445;-60
2023/07/21 11:10:54;;;;;;;3.65;2.00;;;23.60;99.90;;;;;;5051505;28;20021;-59
2023/07/21 11:13:23;;;;;;;3.30;1.80;;;23.60;99.90;;;;;;5051089;28;20039;-60
2023/07/21 11:15:55;;;;;;;3.45;1.80;;;23.50;99.90;;;;;;5051702;28;20464;-59
2023/07/21 11:18:21;;;;;;;3.22;1.60;;;23.60;99.90;;;;;;5051555;28;20052;-60
2023/07/21 11:20:52;;;;;;;5.85;1.80;;;23.60;99.90;;;;;;5051514;28;20041;-60
2023/07/21 11:23:27;;;;;;;3.50;1.58;;;23.90;99.90;;;;;;5051346;28;20033;-60
2023/07/21 11:26:06;;;;;;;4.20;1.92;;;23.90;99.90;;;;;;5051459;28;20410;-60
2023/07/21 11:28:33;;;;;;;2.85;1.48;;;23.80;99.90;;;;;;5051491;28;20049;-59
2023/07/21 11:31:02;;;;;;;2.05;1.42;;;24.00;99.90;;;;;;5051384;28;20029;-60
2023/07/21 11:33:48;;;;;;;4.32;1.50;;;23.90;99.90;;;;;;5051384;28;20032;-60
2023/07/21 11:36:20;;;;;;;2.78;1.63;;;23.80;99.90;;;;;;5051238;28;20025;-60
2023/07/21 11:39:14;;;;;;;4.55;1.70;;;23.70;99.90;;;;;;5049990;28;20402;-60
2023/07/21 11:41:40;;;;;;;3.25;1.48;;;23.50;99.90;;;;;;5051162;28;20490;-59
2023/07/21 11:44:29;;;;;;;2.10;1.50;;;23.50;99.90;;;;;;5050875;28;20040;-60
2023/07/21 11:47:07;;;;;;;2.83;1.70;;;23.50;99.90;;;;;;5051037;28;20081;-60
2023/07/21 11:49:40;;;;;;;3.63;1.50;;;23.80;99.90;;;;;;5051522;28;20124;-60
2023/07/21 11:52:08;;;;;;;3.70;1.60;;;23.60;99.90;;;;;;5050225;28;20025;-60
2023/07/21 11:54:41;;;;;;;4.13;1.40;;;23.50;99.90;;;;;;5051002;28;20546;-60
2023/07/21 11:57:09;;;;;;;2.30;1.33;;;23.60;99.90;;;;;;5050907;28;20045;-60
2023/07/21 11:59:35;;;;;;;2.63;1.55;;;23.80;99.90;;;;;;5050988;28;20033;-60
2023/07/21 12:02:06;;;;;;;4.13;1.35;;;23.80;99.90;;;;;;5051294;28;20036;-60
2023/07/21 12:04:33;;;;;;;2.05;1.45;;;23.60;99.90;;;;;;5051026;28;20409;-59
2023/07/21 12:06:59;;;;;;;1.98;1.67;;;23.50;99.90;;;;;;5050974;28;20044;-60
2023/07/21 12:09:26;;;;;;;4.20;1.58;;;23.50;99.90;;;;;;5050791;28;20033;-60
2023/07/21 12:11:56;;;;;;;2.17;1.40;;;23.60;99.90;;;;;;5050651;28;20503;-60
2023/07/21 12:14:26;;;;;;;3.25;1.38;;;23.60;99.90;;;;;;5050736;28;20122;-60
2023/07/21 12:16:56;;;;;;;4.80;1.70;;;23.70;99.90;;;;;;5050969;28;20029;-60
2023/07/21 12:19:25;;;;;;;3.08;1.50;;;23.80;99.90;;;;;;5050667;28;20025;-60
2023/07/21 12:21:51;;;;;;;2.45;1.60;;;23.90;99.90;;;;;;5050904;28;20500;-60
2023/07/21 12:24:18;;;;;;;1.92;1.40;;;24.10;99.90;;;;;;5050962;28;20133;-60
2023/07/21 12:26:44;;;;;;;2.28;1.63;;;24.40;99.90;;;;;;5050449;28;20490;-59
2023/07/21 12:29:10;;;;;;;3.30;1.40;;;24.30;99.90;;;;;;5050758;28;20047;-60
2023/07/21 12:31:36;;;;;;;2.85;1.50;;;24.30;99.90;;;;;;5051177;28;20047;-60
2023/07/21 12:34:02;;;;;;;2.50;1.70;;;24.60;99.90;;;;;;5050676;28;20040;-60
2023/07/21 12:36:29;;;;;;;4.90;1.50;;;24.70;99.90;;;;;;5050930;28;20029;-59
2023/07/21 12:38:54;;;;;;;2.97;1.70;;;24.60;99.90;;;;;;5050617;28;20029;-60
2023/07/21 12:41:20;;;;;;;2.22;1.55;;;24.50;99.90;;;;;;5050324;28;20036;-60
2023/07/21 12:43:45;;;;;;;3.15;1.42;;;24.60;99.90;;;;;;5049851;28;20025;-60
2023/07/21 12:46:14;;;;;;;2.78;1.40;;;24.50;99.90;;;;;;5050566;28;20036;-59
2023/07/21 12:48:41;;;;;;;2.10;1.13;;;24.70;99.90;;;;;;5050484;28;20378;-60
2023/07/21 12:51:07;;;;;;;1.92;1.30;;;24.70;99.90;;;;;;5051019;28;20029;-60